Time;durP1;ratioP1;P1;durP2;ratioP2;P2;SDS_P1;SDS_P2;PMS_P1;PMS_P2;Temp;Humidity;BMP_temperature;BMP_pressure;BME280_temperature;BME280_humidity;BME280_pressure;Samples;Min_cycle;Max_cycle;Signal;HPM_P1;HPM_P2
2022/02/28 00:01:04;;;;;;;23.60;11.00;;;;;;;-2.06;80.49;99908.75;105947;1280;22562;-70
2022/02/28 00:03:31;;;;;;;28.90;12.00;;;;;;;-2.07;80.49;99906.34;105793;1280;137494;-71
2022/02/28 00:05:58;;;;;;;25.30;9.80;;;;;;;-2.06;80.53;99906.28;105921;1280;22642;-71
2022/02/28 00:08:24;;;;;;;28.30;12.00;;;;;;;-2.05;80.53;99904.71;105818;1280;137462;-71
2022/02/28 00:10:50;;;;;;;21.40;11.30;;;;;;;-2.03;80.71;99904.95;105763;1280;24231;-71
2022/02/28 00:13:17;;;;;;;25.20;10.20;;;;;;;-2.02;80.67;99903.73;105827;1280;32090;-71
2022/02/28 00:15:43;;;;;;;28.80;12.20;;;;;;;-1.99;80.58;99902.48;106042;1281;137627;-70
2022/02/28 00:18:09;;;;;;;27.10;12.40;;;;;;;-1.97;80.22;99906.20;105990;1281;25334;-71
2022/02/28 00:20:35;;;;;;;19.00;10.10;;;;;;;-1.93;80.10;99899.30;105743;1281;138081;-70
2022/02/28 00:23:02;;;;;;;26.80;12.30;;;;;;;-1.91;79.65;99896.11;105911;1280;22621;-70
2022/02/28 00:25:28;;;;;;;22.60;11.00;;;;;;;-1.89;80.07;99893.79;105761;1280;137258;-71
2022/02/28 00:27:55;;;;;;;19.90;9.90;;;;;;;-1.88;79.62;99891.21;106020;1280;25097;-70
2022/02/28 00:30:21;;;;;;;23.70;11.90;;;;;;;-1.89;79.33;99891.48;105958;1280;23543;-70
2022/02/28 00:32:48;;;;;;;26.60;12.60;;;;;;;-1.89;79.54;99889.70;105777;1280;138008;-71
2022/02/28 00:35:14;;;;;;;27.90;12.00;;;;;;;-1.88;79.41;99885.16;105889;1281;23068;-70
2022/02/28 00:37:40;;;;;;;21.90;10.40;;;;;;;-1.86;79.49;99878.95;105813;1281;138251;-70
2022/02/28 00:40:08;;;;;;;23.90;11.10;;;;;;;-1.85;79.14;99882.27;105891;1281;23931;-70
2022/02/28 00:42:34;;;;;;;20.90;10.90;;;;;;;-1.86;78.92;99883.76;106168;1280;22570;-70
2022/02/28 00:45:01;;;;;;;23.80;11.00;;;;;;;-1.87;78.98;99883.66;105954;1279;137407;-70
2022/02/28 00:47:27;;;;;;;23.90;11.30;;;;;;;-1.88;78.98;99880.53;105839;1279;24265;-70
2022/02/28 00:49:53;;;;;;;20.80;9.30;;;;;;;-1.90;79.12;99873.61;105809;1280;137360;-70
2022/02/28 00:52:20;;;;;;;28.40;14.00;;;;;;;-1.92;78.96;99875.72;105922;1281;23191;-70
2022/02/28 00:54:46;;;;;;;27.30;13.80;;;;;;;-1.94;79.11;99876.61;105913;1280;25370;-69
2022/02/28 00:57:12;;;;;;;25.70;12.00;;;;;;;-1.95;79.02;99870.39;105926;1281;138204;-70
2022/02/28 00:59:39;;;;;;;23.90;11.70;;;;;;;-1.92;79.02;99865.21;106000;1281;24263;-72
2022/02/28 01:02:05;;;;;;;20.80;9.10;;;;;;;-1.92;78.66;99868.95;105830;1280;137572;-70
2022/02/28 01:04:32;;;;;;;22.00;11.10;;;;;;;-1.95;78.28;99873.60;105802;1280;25465;-70
2022/02/28 01:06:58;;;;;;;21.40;9.50;;;;;;;-1.95;78.45;99871.02;105808;1280;22561;-69
2022/02/28 01:09:25;;;;;;;23.40;10.20;;;;;;;-1.98;78.18;99867.30;105847;1280;137713;-70
2022/02/28 01:11:51;;;;;;;19.50;9.20;;;;;;;-2.02;77.82;99863.74;105903;1280;24315;-70
2022/02/28 01:14:18;;;;;;;24.40;11.70;;;;;;;-2.06;77.72;99861.20;105948;1279;137987;-70
2022/02/28 01:16:44;;;;;;;22.10;11.20;;;;;;;-2.08;78.06;99856.77;105762;1280;24205;-70
2022/02/28 01:19:11;;;;;;;24.30;10.80;;;;;;;-2.08;78.11;99857.13;105776;1280;25439;-70
2022/02/28 01:21:37;;;;;;;19.50;10.00;;;;;;;-2.09;78.32;99856.48;105978;1280;137378;-71
2022/02/28 01:24:04;;;;;;;27.40;11.80;;;;;;;-2.11;78.35;99858.45;105826;1280;22667;-70
2022/02/28 01:26:30;;;;;;;24.10;10.60;;;;;;;-2.14;78.64;99854.95;106185;1281;138309;-70
2022/02/28 01:28:57;;;;;;;23.40;10.40;;;;;;;-2.16;78.34;99854.40;105954;1281;22683;-69
2022/02/28 01:31:23;;;;;;;23.70;11.70;;;;;;;-2.17;78.74;99850.79;105996;1281;24231;-69
2022/02/28 01:33:49;;;;;;;22.30;10.90;;;;;;;-2.18;78.54;99851.16;105870;1281;137272;-70
2022/02/28 01:36:15;;;;;;;23.00;8.90;;;;;;;-2.17;78.57;99854.33;105759;1281;22698;-71
2022/02/28 01:38:42;;;;;;;20.50;10.10;;;;;;;-2.20;78.70;99859.17;105823;1281;137268;-69
2022/02/28 01:41:08;;;;;;;25.30;11.50;;;;;;;-2.22;78.66;99857.26;106193;1281;22585;-72
2022/02/28 01:43:34;;;;;;;24.60;10.60;;;;;;;-2.26;78.73;99850.81;105985;1281;138893;-72
2022/02/28 01:46:01;;;;;;;24.40;11.00;;;;;;;-2.26;78.82;99852.80;105766;1280;22571;-72
2022/02/28 01:48:27;;;;;;;25.90;11.00;;;;;;;-2.26;78.75;99848.69;106078;1280;24308;-70
2022/02/28 01:50:53;;;;;;;28.70;10.10;;;;;;;-2.27;79.06;99848.21;105956;1280;137914;-72
2022/02/28 01:53:21;;;;;;;21.80;9.40;;;;;;;-2.30;79.00;99849.51;106055;1280;22614;-70
2022/02/28 01:55:48;;;;;;;24.60;10.30;;;;;;;-2.33;78.86;99848.31;106015;1279;137792;-70
2022/02/28 01:58:14;;;;;;;24.20;12.10;;;;;;;-2.36;79.17;99846.46;106109;1280;24439;-70
2022/02/28 02:00:41;;;;;;;25.60;11.10;;;;;;;-2.38;79.14;99845.38;106039;1280;23186;-70
2022/02/28 02:03:07;;;;;;;25.70;11.20;;;;;;;-2.37;79.25;99851.54;105806;1278;137772;-70
2022/02/28 02:05:33;;;;;;;26.20;11.50;;;;;;;-2.36;79.25;99842.91;105974;1278;25317;-70
2022/02/28 02:08:04;;;;;;;17.90;9.50;;;;;;;-2.37;79.44;99841.21;106017;1281;137500;-69
2022/02/28 02:10:34;;;;;;;26.10;10.70;;;;;;;-2.40;79.28;99836.29;105991;1281;26517;-70
2022/02/28 02:13:01;;;;;;;26.10;11.30;;;;;;;-2.42;79.49;99836.67;105875;1278;24136;-70
2022/02/28 02:15:29;;;;;;;24.00;11.30;;;;;;;-2.42;79.30;99835.06;105842;1280;138017;-70
2022/02/28 02:17:57;;;;;;;22.60;11.40;;;;;;;-2.40;79.59;99836.81;105873;1279;22582;-70
2022/02/28 02:20:24;;;;;;;23.80;9.30;;;;;;;-2.36;79.90;99836.52;105974;1279;137433;-72
2022/02/28 02:23:02;;;;;;;25.00;9.90;;;;;;;-2.33;79.53;99842.15;105846;1281;22554;-70
2022/02/28 02:25:29;;;;;;;21.20;9.00;;;;;;;-2.31;79.48;99840.01;105885;1281;137437;-70
2022/02/28 02:27:56;;;;;;;19.40;10.10;;;;;;;-2.31;79.64;99835.73;106029;1278;22542;-70
2022/02/28 02:30:23;;;;;;;22.60;9.40;;;;;;;-2.30;79.62;99827.27;105602;1282;24618;-72
2022/02/28 02:32:49;;;;;;;22.20;9.90;;;;;;;-2.30;79.52;99827.67;105678;1279;137841;-71
2022/02/28 02:35:17;;;;;;;25.20;10.60;;;;;;;-2.32;79.03;99832.27;105951;1279;24311;-70
2022/02/28 02:37:43;;;;;;;19.80;9.60;;;;;;;-2.34;79.09;99825.70;105988;1280;138180;-72
2022/02/28 02:40:10;;;;;;;19.70;9.90;;;;;;;-2.33;79.08;99825.26;105866;1281;22576;-71
2022/02/28 02:42:37;;;;;;;18.40;10.50;;;;;;;-2.32;78.96;99832.64;105916;1279;22563;-70
2022/02/28 02:45:04;;;;;;;20.60;9.80;;;;;;;-2.34;78.86;99840.21;105659;1281;137944;-70
2022/02/28 02:47:30;;;;;;;19.40;10.30;;;;;;;-2.36;78.79;99830.62;105922;1281;24442;-70
2022/02/28 02:50:04;;;;;;;18.60;8.60;;;;;;;-2.38;78.86;99834.52;105688;1281;137833;-70
2022/02/28 02:52:30;;;;;;;16.40;7.80;;;;;;;-2.42;78.86;99833.29;105876;1281;22581;-70
2022/02/28 02:54:56;;;;;;;24.40;10.40;;;;;;;-2.47;78.76;99833.34;105758;1281;22610;-70
2022/02/28 02:57:25;;;;;;;21.40;9.50;;;;;;;-2.50;79.08;99831.99;105730;1280;137872;-70
2022/02/28 02:59:52;;;;;;;27.90;11.00;;;;;;;-2.52;78.96;99835.98;106002;1281;25477;-70
2022/02/28 03:02:18;;;;;;;24.20;10.80;;;;;;;-2.54;78.82;99838.66;105812;1281;138273;-70
2022/02/28 03:04:44;;;;;;;20.10;8.80;;;;;;;-2.58;78.82;99836.70;105850;1284;24564;-70
2022/02/28 03:07:19;;;;;;;18.50;8.20;;;;;;;-2.61;78.88;99833.08;106044;1280;24235;-70
2022/02/28 03:09:47;;;;;;;18.50;9.50;;;;;;;-2.67;79.24;99830.39;105980;1281;137057;-70
2022/02/28 03:12:14;;;;;;;25.90;10.80;;;;;;;-2.73;79.32;99833.69;106223;1279;22650;-70
2022/02/28 03:14:41;;;;;;;22.10;10.00;;;;;;;-2.75;79.39;99838.28;106077;1281;138465;-70
2022/02/28 03:17:07;;;;;;;25.60;10.20;;;;;;;-2.77;79.29;99842.39;105849;1280;25412;-70
2022/02/28 03:19:34;;;;;;;21.30;8.60;;;;;;;-2.78;79.73;99847.59;105872;1278;137793;-70
2022/02/28 03:22:00;;;;;;;21.50;9.50;;;;;;;-2.79;79.62;99840.05;106123;1281;25326;-69
2022/02/28 03:24:27;;;;;;;17.80;8.80;;;;;;;-2.81;79.70;99840.36;105915;1281;24237;-69
2022/02/28 03:26:53;;;;;;;21.70;8.80;;;;;;;-2.82;79.70;99843.63;105687;1280;137219;-69
2022/02/28 03:29:19;;;;;;;23.00;10.00;;;;;;;-2.84;79.79;99840.96;105835;1281;25880;-69
2022/02/28 03:31:45;;;;;;;23.80;10.60;;;;;;;-2.87;79.78;99841.60;105630;1281;138103;-69
2022/02/28 03:34:13;;;;;;;30.00;11.60;;;;;;;-2.93;79.78;99845.02;105928;1281;25269;-69
2022/02/28 03:36:39;;;;;;;18.80;10.50;;;;;;;-2.94;79.80;99845.54;106278;1281;22620;-69
2022/02/28 03:39:11;;;;;;;21.20;10.10;;;;;;;-2.95;79.51;99842.55;106032;1281;138163;-69
2022/02/28 03:41:38;;;;;;;22.10;10.00;;;;;;;-2.94;79.83;99839.12;106258;1278;25412;-69
2022/02/28 03:44:05;;;;;;;19.20;9.10;;;;;;;-2.95;79.86;99839.22;106079;1281;137744;-69
2022/02/28 03:46:35;;;;;;;18.80;7.80;;;;;;;-2.97;80.05;99836.35;105962;1281;22706;-70
2022/02/28 03:49:15;;;;;;;19.70;9.30;;;;;;;-2.99;80.25;99839.75;105711;1281;25284;-70
2022/02/28 03:51:47;;;;;;;21.90;9.20;;;;;;;-3.04;80.01;99847.02;105933;1281;137271;-70
2022/02/28 03:54:32;;;;;;;22.30;9.30;;;;;;;-3.07;80.05;99849.19;106052;1281;22544;-70
2022/02/28 03:56:58;;;;;;;16.70;8.40;;;;;;;-3.07;80.35;99850.79;105738;1281;137811;-70
2022/02/28 03:59:25;;;;;;;20.70;8.80;;;;;;;-3.05;80.25;99854.60;105756;1281;24226;-70
2022/02/28 04:01:51;;;;;;;16.90;8.50;;;;;;;-3.03;80.28;99856.21;105631;1281;137624;-70
2022/02/28 04:04:29;;;;;;;19.10;9.10;;;;;;;-3.02;80.18;99857.75;105750;1283;23920;-70
2022/02/28 04:06:55;;;;;;;19.60;9.00;;;;;;;-3.03;80.05;99858.72;105758;1281;23109;-70
2022/02/28 04:09:22;;;;;;;19.90;10.10;;;;;;;-3.04;80.06;99861.61;105769;1281;137332;-69
2022/02/28 04:11:49;;;;;;;20.50;9.30;;;;;;;-3.06;80.39;99859.46;105705;1281;22553;-70
2022/02/28 04:14:16;;;;;;;23.30;10.80;;;;;;;-3.08;80.36;99858.05;105714;1281;137487;-70
2022/02/28 04:16:42;;;;;;;21.70;10.30;;;;;;;-3.09;79.71;99857.21;105705;1281;25598;-70
2022/02/28 04:19:34;;;;;;;17.20;9.20;;;;;;;-3.08;80.32;99863.12;105524;1281;138270;-70
2022/02/28 04:22:00;;;;;;;21.70;10.00;;;;;;;-3.08;80.32;99859.03;105795;1280;25374;-70
2022/02/28 04:24:27;;;;;;;21.50;8.10;;;;;;;-3.10;80.46;99856.92;105797;1281;22547;-70
2022/02/28 04:26:54;;;;;;;19.50;8.80;;;;;;;-3.12;80.60;99857.10;105759;1281;137344;-70
2022/02/28 04:29:21;;;;;;;18.80;8.40;;;;;;;-3.14;80.51;99861.48;106071;1281;25263;-70
2022/02/28 04:31:49;;;;;;;22.60;9.30;;;;;;;-3.15;80.68;99861.80;105862;1281;137424;-70
2022/02/28 04:34:16;;;;;;;23.40;9.90;;;;;;;-3.17;80.48;99862.80;105863;1279;22576;-70
2022/02/28 04:36:43;;;;;;;22.30;9.50;;;;;;;-3.17;81.08;99867.42;105705;1281;22563;-70
2022/02/28 04:39:10;;;;;;;25.00;11.10;;;;;;;-3.16;80.78;99865.79;105838;1281;138256;-70
2022/02/28 04:41:37;;;;;;;21.10;9.70;;;;;;;-3.14;81.00;99866.82;105978;1280;22668;-69
2022/02/28 04:44:04;;;;;;;19.50;9.20;;;;;;;-3.10;81.15;99868.08;105791;1280;137334;-69
2022/02/28 04:46:31;;;;;;;18.30;8.30;;;;;;;-3.08;81.15;99863.84;106146;1278;22563;-70
2022/02/28 04:49:02;;;;;;;20.10;8.60;;;;;;;-3.09;80.65;99864.66;105773;1280;24522;-69
2022/02/28 04:51:35;;;;;;;18.50;7.00;;;;;;;-3.11;80.73;99865.71;105964;1278;137191;-69
2022/02/28 04:54:03;;;;;;;19.70;8.60;;;;;;;-3.13;80.57;99867.29;105953;1280;22627;-69
2022/02/28 04:56:29;;;;;;;18.60;7.80;;;;;;;-3.16;80.66;99862.53;105872;1281;137803;-69
2022/02/28 04:58:55;;;;;;;19.30;8.50;;;;;;;-3.18;80.79;99866.80;105901;1280;29774;-70
2022/02/28 05:01:37;;;;;;;15.50;8.90;;;;;;;-3.21;80.70;99869.15;105765;1281;138052;-70
2022/02/28 05:04:15;;;;;;;16.80;7.90;;;;;;;-3.21;80.32;99868.83;105967;1281;22592;-69
2022/02/28 05:06:42;;;;;;;17.70;7.60;;;;;;;-3.22;80.74;99871.91;106107;1281;23231;-70
2022/02/28 05:09:09;;;;;;;22.70;8.40;;;;;;;-3.22;80.20;99874.05;105843;1281;137375;-70
2022/02/28 05:11:35;;;;;;;20.40;8.60;;;;;;;-3.25;80.44;99873.58;105698;1278;22567;-70
2022/02/28 05:14:01;;;;;;;17.80;7.30;;;;;;;-3.26;80.32;99875.42;105761;1280;138145;-69
2022/02/28 05:16:27;;;;;;;21.10;7.00;;;;;;;-3.28;80.45;99877.50;105675;1278;25260;-69
2022/02/28 05:18:54;;;;;;;22.40;9.10;;;;;;;-3.30;80.54;99877.69;105771;1280;22587;-72
2022/02/28 05:21:20;;;;;;;20.00;9.60;;;;;;;-3.32;80.41;99882.61;105738;1281;137905;-69
2022/02/28 05:23:47;;;;;;;20.90;9.00;;;;;;;-3.31;80.57;99886.98;106030;1280;22541;-70
2022/02/28 05:26:13;;;;;;;19.50;8.80;;;;;;;-3.29;80.53;99886.32;105806;1280;137725;-70
2022/02/28 05:28:40;;;;;;;19.80;8.30;;;;;;;-3.29;80.60;99890.16;105972;1280;22568;-70
2022/02/28 05:31:07;;;;;;;19.40;9.20;;;;;;;-3.28;80.82;99890.11;106007;1277;22664;-69
2022/02/28 05:33:34;;;;;;;21.00;8.90;;;;;;;-3.29;80.40;99890.70;105624;1278;137508;-70
2022/02/28 05:36:02;;;;;;;22.70;9.50;;;;;;;-3.30;80.69;99893.45;105805;1279;25437;-70
2022/02/28 05:38:34;;;;;;;18.50;8.00;;;;;;;-3.32;80.28;99892.05;105633;1280;137311;-69
2022/02/28 05:41:03;;;;;;;22.90;9.20;;;;;;;-3.33;80.48;99896.77;105636;1279;25539;-69
2022/02/28 05:43:35;;;;;;;19.30;9.00;;;;;;;-3.34;80.52;99893.78;105728;1279;138671;-70
2022/02/28 05:46:02;;;;;;;25.20;8.50;;;;;;;-3.34;80.53;99898.27;105799;1279;26645;-70
2022/02/28 05:48:46;;;;;;;17.40;8.00;;;;;;;-3.34;80.25;99900.58;105930;1279;22500;-70
2022/02/28 05:51:17;;;;;;;17.20;8.00;;;;;;;-3.35;80.58;99903.65;105792;1279;138828;-70
2022/02/28 05:53:43;;;;;;;16.90;7.20;;;;;;;-3.35;80.64;99905.23;105872;1280;25404;-70
2022/02/28 05:56:09;;;;;;;23.10;9.40;;;;;;;-3.36;80.92;99905.55;105928;1277;137553;-70
2022/02/28 05:58:36;;;;;;;21.10;8.80;;;;;;;-3.35;80.64;99906.88;105898;1277;22545;-70
2022/02/28 06:01:02;;;;;;;19.80;8.00;;;;;;;-3.32;80.47;99911.41;105909;1278;22728;-70
2022/02/28 06:03:28;;;;;;;27.80;8.50;;;;;;;-3.29;80.88;99912.77;105983;1278;137519;-70
2022/02/28 06:05:55;;;;;;;20.70;8.10;;;;;;;-3.26;80.72;99914.09;105891;1281;22541;-70
2022/02/28 06:08:21;;;;;;;13.20;6.30;;;;;;;-3.23;80.39;99917.28;105853;1277;137540;-70
2022/02/28 06:10:47;;;;;;;14.10;7.30;;;;;;;-3.23;80.81;99915.67;105992;1278;25416;-70
2022/02/28 06:13:13;;;;;;;19.10;7.60;;;;;;;-3.21;80.55;99919.48;106015;1278;25252;-70
2022/02/28 06:15:41;;;;;;;20.60;7.60;;;;;;;-3.19;80.58;99923.57;105992;1277;137405;-71
2022/02/28 06:18:11;;;;;;;16.00;7.60;;;;;;;-3.17;80.28;99921.80;106095;1277;22573;-71
2022/02/28 06:20:39;;;;;;;19.00;7.40;;;;;;;-3.14;80.73;99916.55;105820;1277;137923;-71
2022/02/28 06:23:09;;;;;;;17.10;7.10;;;;;;;-3.09;80.38;99924.70;105782;1278;22839;-71
2022/02/28 06:25:36;;;;;;;18.50;7.60;;;;;;;-3.04;80.24;99922.14;106032;1277;137856;-71
2022/02/28 06:28:03;;;;;;;14.50;8.10;;;;;;;-3.00;80.27;99927.55;105841;1280;22937;-71
2022/02/28 06:30:29;;;;;;;17.40;7.90;;;;;;;-2.97;80.17;99936.94;106139;1277;22764;-71
2022/02/28 06:32:56;;;;;;;13.30;7.00;;;;;;;-2.93;80.40;99933.59;106064;1277;137391;-71
2022/02/28 06:35:22;;;;;;;19.90;8.30;;;;;;;-2.90;80.02;99937.75;106080;1277;24223;-71
2022/02/28 06:37:48;;;;;;;12.60;6.70;;;;;;;-2.90;79.70;99938.27;106045;1277;137497;-71
2022/02/28 06:40:14;;;;;;;13.50;7.70;;;;;;;-2.88;79.84;99938.31;105971;1277;23779;-71
2022/02/28 06:42:56;;;;;;;14.50;6.70;;;;;;;-2.83;79.37;99944.70;106016;1280;22563;-71
2022/02/28 06:45:24;;;;;;;16.90;6.80;;;;;;;-2.79;79.92;99942.94;106193;1278;137821;-71
2022/02/28 06:47:51;;;;;;;13.00;6.50;;;;;;;-2.77;79.69;99941.77;106002;1278;22652;-71
2022/02/28 06:50:17;;;;;;;13.20;7.30;;;;;;;-2.77;79.52;99947.08;106113;1277;137367;-71
2022/02/28 06:52:44;;;;;;;16.20;7.00;;;;;;;-2.75;79.64;99949.35;106027;1275;23442;-71
2022/02/28 06:55:10;;;;;;;13.40;7.30;;;;;;;-2.71;79.48;99951.02;105985;1277;25355;-71
2022/02/28 06:57:36;;;;;;;13.40;6.60;;;;;;;-2.67;79.35;99948.06;106229;1277;138039;-71
2022/02/28 07:00:04;;;;;;;13.40;5.90;;;;;;;-2.62;79.25;99951.75;106136;1278;22701;-71
2022/02/28 07:02:31;;;;;;;15.40;6.60;;;;;;;-2.57;79.02;99960.00;106172;1278;138161;-71
2022/02/28 07:05:13;;;;;;;13.10;5.80;;;;;;;-2.48;79.28;99961.41;106106;1278;24431;-71
2022/02/28 07:07:43;;;;;;;15.10;6.90;;;;;;;-2.43;78.83;99964.23;106358;1280;137682;-71
2022/02/28 07:10:12;;;;;;;13.30;6.60;;;;;;;-2.40;78.88;99966.99;106122;1277;23132;-71
2022/02/28 07:12:39;;;;;;;12.50;5.90;;;;;;;-2.35;78.73;99972.33;106243;1277;24465;-71
2022/02/28 07:15:08;;;;;;;12.90;6.40;;;;;;;-2.30;78.52;99983.27;106094;1277;137805;-71
2022/02/28 07:17:35;;;;;;;11.10;5.90;;;;;;;-2.23;78.70;99984.32;106297;1277;23960;-71
2022/02/28 07:20:01;;;;;;;14.50;5.90;;;;;;;-2.16;78.13;99980.91;106094;1280;138084;-71
2022/02/28 07:22:27;;;;;;;12.90;4.90;;;;;;;-2.08;78.10;99983.13;106126;1279;25255;-71
2022/02/28 07:24:54;;;;;;;8.90;4.30;;;;;;;-1.98;78.04;99982.07;105921;1280;25477;-70
2022/02/28 07:27:20;;;;;;;13.60;5.80;;;;;;;-1.88;77.86;99986.79;106114;1280;137284;-70
2022/02/28 07:29:46;;;;;;;11.70;5.10;;;;;;;-1.79;77.43;99985.86;106338;1277;22701;-70
2022/02/28 07:32:13;;;;;;;11.80;6.00;;;;;;;-1.70;77.36;99994.16;106212;1277;137882;-71
2022/02/28 07:34:39;;;;;;;11.30;4.90;;;;;;;-1.58;77.62;99995.35;106123;1277;22833;-70
2022/02/28 07:37:05;;;;;;;17.00;6.10;;;;;;;-1.49;77.17;99999.05;106354;1280;22556;-70
2022/02/28 07:39:32;;;;;;;14.30;6.10;;;;;;;-1.43;76.67;100000.50;106209;1277;137885;-70
2022/02/28 07:42:00;;;;;;;10.90;5.70;;;;;;;-1.39;76.26;99997.26;106231;1277;26605;-70
2022/02/28 07:44:27;;;;;;;11.80;5.90;;;;;;;-1.33;75.92;100004.05;105896;1278;138388;-70
2022/02/28 07:46:54;;;;;;;10.80;5.00;;;;;;;-1.28;75.78;99996.70;105869;1278;26627;-70
2022/02/28 07:49:20;;;;;;;9.30;4.60;;;;;;;-1.23;75.72;100001.05;106019;1280;22595;-70
2022/02/28 07:51:46;;;;;;;11.50;6.30;;;;;;;-1.17;75.67;99995.45;105964;1278;137275;-70
2022/02/28 07:54:12;;;;;;;13.80;5.80;;;;;;;-1.08;76.05;99997.69;106585;1279;25427;-71
2022/02/28 07:56:39;;;;;;;11.70;4.90;;;;;;;-0.96;76.00;99998.59;106076;1277;137285;-71
2022/02/28 07:59:05;;;;;;;11.70;5.30;;;;;;;-0.82;75.76;99997.73;106223;1277;25423;-71
2022/02/28 08:01:32;;;;;;;10.80;5.00;;;;;;;-0.72;75.21;99996.87;106359;1277;138152;-71
2022/02/28 08:03:59;;;;;;;9.40;4.70;;;;;;;-0.66;74.54;100001.35;106084;1278;24188;-70
2022/02/28 08:06:25;;;;;;;8.50;4.50;;;;;;;-0.60;74.41;99997.97;106246;1277;22934;-71
2022/02/28 08:08:51;;;;;;;9.90;4.60;;;;;;;-0.57;73.85;99999.67;106158;1277;137272;-70
2022/02/28 08:11:17;;;;;;;10.60;5.50;;;;;;;-0.53;74.02;99996.35;106020;1277;25311;-70
2022/02/28 08:13:43;;;;;;;9.30;4.70;;;;;;;-0.48;73.83;99999.95;106133;1277;137372;-70
2022/02/28 08:16:10;;;;;;;13.20;6.30;;;;;;;-0.46;73.44;100001.39;106054;1277;24875;-70
2022/02/28 08:18:37;;;;;;;12.70;6.50;;;;;;;-0.46;72.92;100003.32;106075;1277;22556;-70
2022/02/28 08:21:04;;;;;;;9.60;4.50;;;;;;;-0.43;73.34;100010.05;105800;1280;138152;-70
2022/02/28 08:23:30;;;;;;;10.90;4.70;;;;;;;-0.39;73.32;100006.64;106123;1277;22549;-70
2022/02/28 08:25:56;;;;;;;11.50;4.90;;;;;;;-0.32;73.19;100008.05;106088;1278;138096;-70
2022/02/28 08:28:23;;;;;;;11.90;5.50;;;;;;;-0.26;72.79;100011.56;106023;1277;24665;-70
2022/02/28 08:30:50;;;;;;;9.70;4.90;;;;;;;-0.21;72.35;100013.06;106155;1277;22607;-70
2022/02/28 08:33:16;;;;;;;10.50;5.10;;;;;;;-0.13;72.65;100017.36;106043;1277;137140;-70
2022/02/28 08:35:43;;;;;;;10.30;4.80;;;;;;;-0.07;72.31;100020.02;106406;1277;22548;-70
2022/02/28 08:38:11;;;;;;;11.40;4.80;;;;;;;-0.01;72.22;100023.06;106853;1277;137609;-70
2022/02/28 08:40:38;;;;;;;10.10;4.90;;;;;;;0.01;71.84;100021.15;106600;1277;24326;-70
2022/02/28 08:43:04;;;;;;;9.60;5.10;;;;;;;-0.03;71.31;100023.41;106587;1277;25255;-70
2022/02/28 08:45:31;;;;;;;12.30;5.50;;;;;;;-0.06;71.17;100023.18;106044;1278;137810;-70
2022/02/28 08:47:57;;;;;;;11.00;5.10;;;;;;;-0.08;71.07;100022.48;106695;1278;22706;-71
2022/02/28 08:50:24;;;;;;;10.00;4.70;;;;;;;-0.08;70.74;100021.16;106941;1278;137280;-70
2022/02/28 08:52:50;;;;;;;11.00;5.80;;;;;;;-0.05;70.82;100025.94;106831;1280;22719;-70
2022/02/28 08:55:17;;;;;;;10.10;4.80;;;;;;;0.01;71.10;100026.70;106467;1277;23950;-70
2022/02/28 08:57:43;;;;;;;9.80;5.40;;;;;;;0.11;71.12;100029.67;106550;1277;138344;-69
2022/02/28 09:00:10;;;;;;;12.50;5.30;;;;;;;0.19;70.99;100031.07;106737;1278;22700;-70
2022/02/28 09:02:37;;;;;;;8.80;4.70;;;;;;;0.28;70.49;100029.95;106449;1277;252871;-70
2022/02/28 09:05:05;;;;;;;7.00;4.10;;;;;;;0.30;70.08;100035.66;106699;1278;24224;-70
2022/02/28 09:07:32;;;;;;;10.50;5.40;;;;;;;0.29;69.99;100037.34;106233;1278;137383;-70
2022/02/28 09:09:58;;;;;;;10.40;5.70;;;;;;;0.25;69.45;100037.03;106231;1278;22639;-70
2022/02/28 09:12:24;;;;;;;9.50;5.80;;;;;;;0.27;69.80;100036.64;106379;1277;24281;-71
2022/02/28 09:14:51;;;;;;;13.40;6.80;;;;;;;0.37;71.04;100033.77;106187;1279;137989;-71
2022/02/28 09:17:17;;;;;;;13.60;6.80;;;;;;;0.59;70.59;100033.20;106068;1279;22560;-71
2022/02/28 09:19:44;;;;;;;11.90;6.10;;;;;;;0.71;69.50;100036.05;105702;1279;138122;-71
2022/02/28 09:22:11;;;;;;;10.30;5.10;;;;;;;0.77;69.40;100037.56;106088;1280;22633;-71
2022/02/28 09:24:37;;;;;;;7.80;3.50;;;;;;;0.79;68.77;100038.99;105930;1278;22555;-71
2022/02/28 09:27:07;;;;;;;7.70;4.00;;;;;;;0.84;68.29;100039.27;106082;1278;137132;-72
2022/02/28 09:29:33;;;;;;;7.90;4.40;;;;;;;0.87;68.41;100038.83;106573;1277;23256;-71
2022/02/28 09:32:00;;;;;;;9.10;4.30;;;;;;;0.94;68.79;100036.15;106329;1274;137468;-71
2022/02/28 09:34:27;;;;;;;8.50;4.20;;;;;;;1.08;68.61;100036.10;106364;1274;30956;-71
2022/02/28 09:36:57;;;;;;;10.60;3.90;;;;;;;1.19;68.57;100039.75;106265;1274;25403;-71
2022/02/28 09:39:23;;;;;;;10.80;4.00;;;;;;;1.21;67.22;100041.86;106328;1273;137598;-72
2022/02/28 09:42:23;;;;;;;8.10;4.00;;;;;;;1.31;67.14;100039.14;106792;1274;22382;-71
2022/02/28 09:45:23;;;;;;;8.70;4.70;;;;;;;1.42;67.14;100042.79;105841;1274;137623;-71
2022/02/28 09:48:09;;;;;;;6.10;2.90;;;;;;;1.57;67.75;100043.96;106061;1277;25320;-71
2022/02/28 09:51:09;;;;;;;4.90;3.10;;;;;;;1.63;65.17;100044.48;106083;1277;137078;-72
2022/02/28 09:53:56;;;;;;;8.80;3.40;;;;;;;1.67;65.14;100048.41;105921;1274;24367;-69
2022/02/28 09:56:49;;;;;;;7.80;3.30;;;;;;;1.77;65.02;100049.59;106070;1274;137473;-69
2022/02/28 09:59:50;;;;;;;5.50;2.90;;;;;;;1.89;64.37;100045.90;106362;1274;22699;-69
2022/02/28 10:02:17;;;;;;;6.70;3.00;;;;;;;1.99;63.48;100046.56;106164;1274;137297;-70
2022/02/28 10:04:46;;;;;;;5.50;2.80;;;;;;;2.04;63.51;100050.94;106588;1274;25385;-69
2022/02/28 10:07:19;;;;;;;7.30;3.50;;;;;;;2.13;63.42;100049.20;106157;1277;23505;-70
2022/02/28 10:09:45;;;;;;;6.40;2.80;;;;;;;2.32;63.70;100045.47;106352;1276;137051;-69
2022/02/28 10:12:12;;;;;;;6.10;2.90;;;;;;;2.37;62.52;100045.33;106560;1274;25324;-70
2022/02/28 10:14:38;;;;;;;5.40;2.80;;;;;;;2.32;61.52;100041.17;106440;1274;137350;-70
2022/02/28 10:17:05;;;;;;;5.00;3.00;;;;;;;2.24;61.04;100047.17;106539;1274;25292;-70
2022/02/28 10:19:35;;;;;;;5.40;2.80;;;;;;;2.14;60.37;100046.38;106467;1274;138302;-71
2022/02/28 10:22:04;;;;;;;6.00;3.10;;;;;;;2.02;60.48;100045.38;106311;1277;25329;-71
2022/02/28 10:24:48;;;;;;;4.10;2.10;;;;;;;1.90;58.76;100041.39;106767;1277;23543;-71
2022/02/28 10:27:18;;;;;;;5.50;3.10;;;;;;;1.78;58.02;100040.20;106155;1277;137038;-70
2022/02/28 10:30:05;;;;;;;5.70;2.60;;;;;;;1.71;58.74;100043.04;106230;1277;25379;-71
2022/02/28 10:32:51;;;;;;;7.30;2.50;;;;;;;1.67;59.02;100044.96;106276;1276;137144;-71
2022/02/28 10:39:10;;;;;;;4.90;2.40;;;;;;;1.85;59.75;100039.57;106037;1277;137315;-71
2022/02/28 10:41:43;;;;;;;5.40;2.70;;;;;;;2.10;59.36;100042.09;106239;1277;25297;-71
2022/02/28 10:44:13;;;;;;;5.00;2.60;;;;;;;2.36;58.59;100039.72;106140;1274;137319;-71
2022/02/28 10:46:43;;;;;;;3.80;2.50;;;;;;;2.59;59.05;100033.69;106266;1274;22581;-71
2022/02/28 10:49:17;;;;;;;5.70;3.20;;;;;;;2.74;58.29;100035.77;106351;1274;24285;-71
2022/02/28 10:51:52;;;;;;;4.40;2.00;;;;;;;2.94;57.11;100040.55;107529;1274;136855;-71
2022/02/28 10:54:27;;;;;;;5.00;2.30;;;;;;;3.07;55.40;100043.13;106971;1274;23924;-71
2022/02/28 10:56:57;;;;;;;5.90;2.40;;;;;;;3.16;54.56;100044.70;106404;1277;137266;-71
2022/02/28 10:59:38;;;;;;;4.70;2.70;;;;;;;3.08;54.05;100047.40;106516;1277;23919;-70
2022/02/28 11:02:07;;;;;;;10.40;3.50;;;;;;;2.87;54.19;100046.80;106672;1277;138718;-70
2022/02/28 11:04:40;;;;;;;;;;;;;;;2.68;54.81;100049.08;106607;1274;24227;-71
2022/02/28 11:07:14;;;;;;;5.40;2.60;;;;;;;2.52;55.23;100054.60;107007;1273;24379;-71
2022/02/28 11:09:52;;;;;;;4.50;2.50;;;;;;;2.52;55.84;100051.98;106622;1274;137280;-71
2022/02/28 11:12:35;;;;;;;5.80;2.70;;;;;;;2.59;56.11;100048.69;106862;1274;24195;-71
2022/02/28 11:15:18;;;;;;;3.90;2.20;;;;;;;2.82;56.04;100050.20;106779;1274;138252;-71
2022/02/28 11:17:48;;;;;;;3.10;1.90;;;;;;;3.01;54.86;100049.23;107059;1276;24227;-71
2022/02/28 11:20:17;;;;;;;6.30;2.80;;;;;;;3.14;54.01;100053.52;106752;1277;137314;-72
2022/02/28 11:22:47;;;;;;;5.60;2.20;;;;;;;3.19;53.75;100054.81;106818;1277;22707;-72
2022/02/28 11:25:19;;;;;;;5.60;2.40;;;;;;;3.16;53.75;100062.99;106353;1274;24281;-72